createdAt,value
2022-11-29T00:01:26.442Z,8.80
2022-11-29T00:03:54.081Z,8.80
2022-11-29T00:06:23.680Z,8.80
2022-11-29T00:08:50.785Z,8.80
2022-11-29T00:11:40.537Z,8.80
2022-11-29T00:14:09.164Z,8.80
2022-11-29T00:16:36.604Z,8.80
2022-11-29T00:19:03.315Z,8.80
2022-11-29T00:21:30.106Z,8.80
2022-11-29T00:23:56.858Z,8.80
2022-11-29T00:26:23.833Z,8.80
2022-11-29T00:28:50.961Z,8.80
2022-11-29T00:31:20.815Z,8.80
2022-11-29T00:33:47.810Z,8.80
2022-11-29T00:36:14.853Z,8.80
2022-11-29T00:38:42.113Z,8.80
2022-11-29T00:41:10.307Z,8.80
2022-11-29T00:43:37.157Z,8.80
2022-11-29T00:46:04.111Z,8.80
2022-11-29T00:48:31.026Z,8.80
2022-11-29T00:50:57.879Z,8.80
2022-11-29T00:53:25.242Z,8.80
2022-11-29T00:55:53.197Z,8.80
2022-11-29T00:58:20.691Z,8.80
2022-11-29T01:00:47.705Z,8.80
2022-11-29T01:03:15.877Z,8.90
2022-11-29T01:05:43.433Z,8.90
2022-11-29T01:08:10.746Z,8.90
2022-11-29T01:10:37.534Z,8.80
2022-11-29T01:13:04.860Z,8.90
2022-11-29T01:15:31.924Z,8.80
2022-11-29T01:17:59.319Z,8.90
2022-11-29T01:20:26.772Z,8.90
2022-11-29T01:22:53.880Z,8.80
2022-11-29T01:25:20.706Z,8.90
2022-11-29T01:27:47.599Z,8.90
2022-11-29T01:30:14.797Z,8.90
2022-11-29T01:32:41.581Z,8.90
2022-11-29T01:35:08.850Z,8.80
2022-11-29T01:37:35.906Z,8.90
2022-11-29T01:40:02.915Z,8.90
2022-11-29T01:42:29.679Z,8.90
2022-11-29T01:45:21.698Z,8.90
2022-11-29T01:47:52.614Z,8.90
2022-11-29T01:50:19.981Z,8.90
2022-11-29T01:52:47.853Z,8.90
2022-11-29T01:55:14.724Z,8.80
2022-11-29T01:57:43.553Z,8.90
2022-11-29T02:00:13.716Z,8.90
2022-11-29T02:02:57.311Z,8.90
2022-11-29T02:05:25.287Z,8.90
2022-11-29T02:07:55.098Z,8.90
2022-11-29T02:10:55.780Z,8.90
2022-11-29T02:13:31.036Z,8.90
2022-11-29T02:16:15.495Z,8.90
2022-11-29T02:19:25.483Z,8.90
2022-11-29T02:21:55.044Z,8.90
2022-11-29T02:24:24.813Z,8.90
2022-11-29T02:27:12.485Z,8.90
2022-11-29T02:30:00.776Z,8.90
2022-11-29T02:32:45.829Z,8.90
2022-11-29T02:35:21.695Z,8.90
2022-11-29T02:38:07.409Z,8.90
2022-11-29T02:40:52.690Z,8.90
2022-11-29T02:43:45.646Z,8.90
2022-11-29T02:46:49.989Z,8.90
2022-11-29T02:49:31.684Z,8.90
2022-11-29T02:52:30.714Z,8.90
2022-11-29T02:55:25.906Z,8.90
2022-11-29T02:58:06.482Z,8.90
2022-11-29T03:00:38.679Z,8.80
2022-11-29T03:03:30.907Z,8.80
2022-11-29T03:06:17.599Z,8.80
2022-11-29T03:08:59.199Z,8.90
2022-11-29T03:11:51.065Z,8.80
2022-11-29T03:14:30.939Z,8.80
2022-11-29T03:17:34.993Z,8.80
2022-11-29T03:20:23.411Z,8.80
2022-11-29T03:23:24.104Z,8.80
2022-11-29T03:26:04.809Z,8.80
2022-11-29T03:28:34.699Z,8.80
2022-11-29T03:31:21.278Z,8.80
2022-11-29T03:34:24.494Z,8.80
2022-11-29T03:37:15.563Z,8.80
2022-11-29T03:39:54.290Z,8.80
2022-11-29T03:42:41.277Z,8.80
2022-11-29T03:45:18.785Z,8.80
2022-11-29T03:47:55.459Z,8.80
2022-11-29T03:50:42.123Z,8.80
2022-11-29T03:53:31.750Z,8.80
2022-11-29T03:56:04.861Z,8.80
2022-11-29T03:58:50.456Z,8.70
2022-11-29T04:01:42.426Z,8.70
2022-11-29T04:04:54.719Z,8.70
2022-11-29T04:07:43.091Z,8.70
2022-11-29T04:10:45.194Z,8.70
2022-11-29T04:13:35.412Z,8.70
2022-11-29T04:16:11.064Z,8.60
2022-11-29T04:19:22.751Z,8.70
2022-11-29T04:22:25.877Z,8.70
2022-11-29T04:25:20.328Z,8.60
2022-11-29T04:27:59.067Z,8.70
2022-11-29T04:30:30.125Z,8.70
2022-11-29T04:33:34.175Z,8.70
2022-11-29T04:36:26.105Z,8.60
2022-11-29T04:39:23.444Z,8.70
2022-11-29T04:42:26.437Z,8.60
2022-11-29T04:45:10.517Z,8.60
2022-11-29T04:47:59.085Z,8.60
2022-11-29T04:51:01.118Z,8.60
2022-11-29T04:53:49.763Z,8.60
2022-11-29T04:56:28.466Z,8.60
2022-11-29T04:59:23.646Z,8.50
2022-11-29T05:02:08.881Z,8.60
2022-11-29T05:04:44.836Z,8.50
2022-11-29T05:07:21.554Z,8.50
2022-11-29T05:10:19.349Z,8.60
2022-11-29T05:12:59.666Z,8.50
2022-11-29T05:15:45.233Z,8.50
2022-11-29T05:18:26.855Z,8.50
2022-11-29T05:21:06.145Z,8.50
2022-11-29T05:23:48.837Z,8.50
2022-11-29T05:26:28.953Z,8.50
2022-11-29T05:29:26.889Z,8.50
2022-11-29T05:32:16.893Z,8.50
2022-11-29T05:35:25.123Z,8.50
2022-11-29T05:37:55.122Z,8.50
2022-11-29T05:40:27.973Z,8.50
2022-11-29T05:43:14.256Z,8.50
2022-11-29T05:45:57.876Z,8.50
2022-11-29T05:48:51.781Z,8.50
2022-11-29T05:51:28.920Z,8.50
2022-11-29T05:53:55.658Z,8.50
2022-11-29T05:56:52.878Z,8.50
2022-11-29T05:59:24.612Z,8.50
2022-11-29T06:01:54.204Z,8.50
2022-11-29T06:04:35.416Z,8.50
2022-11-29T06:07:38.711Z,8.40
2022-11-29T06:10:14.958Z,8.40
2022-11-29T06:12:47.101Z,8.40
2022-11-29T06:15:48.660Z,8.40
2022-11-29T06:18:24.906Z,8.40
2022-11-29T06:20:59.911Z,8.40
2022-11-29T06:23:36.454Z,8.40
2022-11-29T06:26:26.789Z,8.40
2022-11-29T06:29:20.519Z,8.40
2022-11-29T06:31:57.712Z,8.40
2022-11-29T06:34:40.762Z,8.40
2022-11-29T06:37:31.377Z,8.40
2022-11-29T06:39:58.369Z,8.40
2022-11-29T06:42:25.158Z,8.40
2022-11-29T06:44:52.271Z,8.40
2022-11-29T06:47:26.985Z,8.40
2022-11-29T06:50:03.917Z,8.40
2022-11-29T06:52:39.280Z,8.30
2022-11-29T06:55:13.199Z,8.30
2022-11-29T06:57:40.154Z,8.30
2022-11-29T07:00:57.801Z,8.30
2022-11-29T07:03:55.410Z,8.30
2022-11-29T07:06:27.400Z,8.30
2022-11-29T07:09:01.786Z,8.30
2022-11-29T07:11:28.999Z,8.30
2022-11-29T07:13:56.384Z,8.30
2022-11-29T07:16:41.904Z,8.30
2022-11-29T07:19:20.266Z,8.30
2022-11-29T07:22:01.717Z,8.30
2022-11-29T07:24:51.018Z,8.20
2022-11-29T07:27:38.551Z,8.20
2022-11-29T07:30:11.015Z,8.30
2022-11-29T07:33:00.569Z,8.30
2022-11-29T07:35:39.538Z,8.30
2022-11-29T07:38:35.928Z,8.30
2022-11-29T07:41:19.123Z,8.20
2022-11-29T07:44:05.278Z,8.20
2022-11-29T07:46:32.132Z,8.30
2022-11-29T07:48:58.905Z,8.30
2022-11-29T07:51:25.839Z,8.30
2022-11-29T07:53:52.648Z,8.30
2022-11-29T07:56:19.482Z,8.30
2022-11-29T07:58:46.696Z,8.30
2022-11-29T08:01:13.532Z,8.30
2022-11-29T08:03:42.182Z,8.30
2022-11-29T08:06:08.918Z,8.20
2022-11-29T08:08:40.580Z,8.30
2022-11-29T08:11:12.050Z,8.30
2022-11-29T08:13:38.802Z,8.30
2022-11-29T08:16:05.768Z,8.30
2022-11-29T08:18:32.676Z,8.30
2022-11-29T08:20:59.447Z,8.30
2022-11-29T08:23:26.340Z,8.30
2022-11-29T08:25:59.893Z,8.30
2022-11-29T08:28:27.134Z,8.30
2022-11-29T08:31:20.465Z,8.30
2022-11-29T08:33:47.771Z,8.40
2022-11-29T08:36:18.483Z,8.40
2022-11-29T08:38:45.965Z,8.40
2022-11-29T08:41:13.607Z,8.40
2022-11-29T08:43:41.438Z,8.50
2022-11-29T08:46:10.476Z,8.50
2022-11-29T08:48:40.603Z,8.50
2022-11-29T08:51:07.575Z,8.50
2022-11-29T08:53:44.507Z,8.50
2022-11-29T08:56:53.450Z,8.50
2022-11-29T08:59:00.726Z,8.50
2022-11-29T09:01:29.033Z,8.50
2022-11-29T09:03:59.365Z,8.50
2022-11-29T09:06:31.857Z,8.50
2022-11-29T09:09:00.154Z,8.50
2022-11-29T09:11:28.972Z,8.50
2022-11-29T09:14:01.551Z,8.60
2022-11-29T09:16:34.224Z,8.60
2022-11-29T09:19:01.787Z,8.60
2022-11-29T09:21:31.103Z,8.60
2022-11-29T09:24:02.473Z,8.60
2022-11-29T09:26:32.549Z,8.70
2022-11-29T09:29:01.251Z,8.70
2022-11-29T09:31:30.401Z,8.70
2022-11-29T09:33:57.484Z,8.70
2022-11-29T09:36:28.924Z,8.70
2022-11-29T09:38:57.368Z,8.70
2022-11-29T09:41:55.420Z,8.70
2022-11-29T09:44:59.208Z,8.80
2022-11-29T09:47:44.551Z,8.80
2022-11-29T09:50:21.238Z,8.80
2022-11-29T09:53:06.167Z,8.90
2022-11-29T09:55:55.991Z,8.90
2022-11-29T09:58:26.907Z,8.90
2022-11-29T10:01:02.728Z,8.90
2022-11-29T10:03:38.168Z,8.90
2022-11-29T10:06:09.685Z,8.90
2022-11-29T10:08:50.966Z,8.90
2022-11-29T10:11:23.537Z,9.00
2022-11-29T10:13:54.304Z,8.90
2022-11-29T10:16:41.835Z,9.00
2022-11-29T10:19:29.918Z,9.00
2022-11-29T10:22:17.672Z,9.00
2022-11-29T10:24:48.775Z,9.10
2022-11-29T10:27:23.003Z,9.10
2022-11-29T10:29:53.788Z,9.10
2022-11-29T10:32:22.583Z,9.10
2022-11-29T10:34:50.112Z,9.20
2022-11-29T10:37:20.756Z,9.20
2022-11-29T10:39:59.913Z,9.20
2022-11-29T10:42:47.444Z,9.20
2022-11-29T10:45:30.978Z,9.20
2022-11-29T10:48:11.921Z,9.20
2022-11-29T10:50:43.832Z,9.20
2022-11-29T10:53:15.062Z,9.20
2022-11-29T10:56:05.698Z,9.20
2022-11-29T10:58:32.813Z,9.30
2022-11-29T11:01:06.499Z,9.30
2022-11-29T11:03:53.443Z,9.30
2022-11-29T11:06:23.118Z,9.30
2022-11-29T11:08:55.923Z,9.30
2022-11-29T11:11:33.581Z,9.30
2022-11-29T11:14:06.724Z,9.30
2022-11-29T11:16:37.292Z,9.40
2022-11-29T11:19:33.051Z,9.40
2022-11-29T11:22:02.019Z,9.40
2022-11-29T11:24:34.293Z,9.40
2022-11-29T11:27:01.958Z,9.40
2022-11-29T11:29:46.722Z,9.30
2022-11-29T11:32:19.173Z,9.40
2022-11-29T11:35:00.809Z,9.40
2022-11-29T11:37:33.045Z,9.40
2022-11-29T11:40:28.868Z,9.50
2022-11-29T11:43:01.499Z,9.50
2022-11-29T11:45:36.986Z,9.50
2022-11-29T11:48:14.881Z,9.60
2022-11-29T11:50:51.498Z,9.60
2022-11-29T11:53:23.982Z,9.70
2022-11-29T11:56:00.513Z,9.70
2022-11-29T11:58:29.142Z,9.70
2022-11-29T12:01:12.466Z,9.70
2022-11-29T12:04:16.579Z,9.80
2022-11-29T12:06:52.662Z,9.70
2022-11-29T12:09:32.597Z,9.70
2022-11-29T12:12:20.937Z,9.70
2022-11-29T12:15:04.394Z,9.70
2022-11-29T12:17:49.690Z,9.70
2022-11-29T12:20:33.754Z,9.70
2022-11-29T12:23:16.944Z,9.70
2022-11-29T12:26:13.723Z,9.70
2022-11-29T12:28:46.774Z,9.70
2022-11-29T12:31:35.246Z,9.60
2022-11-29T12:34:27.038Z,9.60
2022-11-29T12:37:16.458Z,9.60
2022-11-29T12:40:05.547Z,9.50
2022-11-29T12:43:02.261Z,9.60
2022-11-29T12:45:53.765Z,9.60
2022-11-29T12:48:37.661Z,9.60
2022-11-29T12:51:35.090Z,9.60
2022-11-29T12:54:29.574Z,9.60
2022-11-29T12:57:33.847Z,9.60
2022-11-29T13:00:08.159Z,9.60
2022-11-29T13:02:49.023Z,9.60
2022-11-29T13:05:39.330Z,9.60
2022-11-29T13:08:36.394Z,9.60
2022-11-29T13:11:17.858Z,9.60
2022-11-29T13:14:03.810Z,9.60
2022-11-29T13:16:53.639Z,9.60
2022-11-29T13:19:32.412Z,9.60
2022-11-29T13:22:20.053Z,9.60
2022-11-29T13:24:50.719Z,9.60
2022-11-29T13:27:28.445Z,9.60
2022-11-29T13:29:56.699Z,9.60
2022-11-29T13:32:39.486Z,9.60
2022-11-29T13:35:15.068Z,9.60
2022-11-29T13:38:16.978Z,9.60
2022-11-29T13:40:52.073Z,9.60
2022-11-29T13:43:30.304Z,9.60
2022-11-29T13:46:23.616Z,9.50
2022-11-29T13:48:53.421Z,9.50
2022-11-29T13:51:32.212Z,9.50
2022-11-29T13:54:07.347Z,9.40
2022-11-29T13:56:46.303Z,9.40
2022-11-29T13:59:30.429Z,9.30
2022-11-29T14:01:58.386Z,9.40
2022-11-29T14:04:28.174Z,9.30
2022-11-29T14:07:05.218Z,9.30
2022-11-29T14:09:37.539Z,9.30
2022-11-29T14:12:27.421Z,9.30
2022-11-29T14:15:02.997Z,9.30
2022-11-29T14:17:52.666Z,9.30
2022-11-29T14:20:22.408Z,9.20
2022-11-29T14:23:04.542Z,9.20
2022-11-29T14:25:51.120Z,9.30
2022-11-29T14:28:21.873Z,9.20
2022-11-29T14:30:53.408Z,9.20
2022-11-29T14:33:35.310Z,9.20
2022-11-29T14:36:38.971Z,9.20
2022-11-29T14:39:29.769Z,9.10
2022-11-29T14:42:16.921Z,9.20
2022-11-29T14:44:45.634Z,9.10
2022-11-29T14:47:34.323Z,9.10
2022-11-29T14:50:06.420Z,9.10
2022-11-29T14:52:40.776Z,9.10
2022-11-29T14:55:16.733Z,9.10
2022-11-29T14:58:02.041Z,9.10
2022-11-29T15:01:03.848Z,9.10
2022-11-29T15:03:38.894Z,9.10
2022-11-29T15:06:14.482Z,9.10
2022-11-29T15:09:05.948Z,9.10
2022-11-29T15:11:55.692Z,9.00
2022-11-29T15:14:32.400Z,9.10
2022-11-29T15:17:13.933Z,9.00
2022-11-29T15:20:16.310Z,9.00
2022-11-29T15:22:54.011Z,9.00
2022-11-29T15:25:25.871Z,9.00
2022-11-29T15:27:57.502Z,9.00
2022-11-29T15:30:30.507Z,9.00
2022-11-29T15:32:58.953Z,9.00
2022-11-29T15:35:25.891Z,9.00
2022-11-29T15:37:53.711Z,9.00
2022-11-29T15:40:21.871Z,9.00
2022-11-29T15:43:16.791Z,9.00
2022-11-29T15:45:52.089Z,8.90
2022-11-29T15:48:28.837Z,8.90
2022-11-29T15:51:05.073Z,8.90
2022-11-29T15:53:49.978Z,8.90
2022-11-29T15:56:26.092Z,8.90
2022-11-29T15:58:59.371Z,8.90
2022-11-29T16:01:26.210Z,8.80
2022-11-29T16:03:55.773Z,8.80
2022-11-29T16:06:44.231Z,8.80
2022-11-29T16:09:20.976Z,8.80
2022-11-29T16:11:48.542Z,8.80
2022-11-29T16:14:21.374Z,8.80
2022-11-29T16:16:52.337Z,8.80
2022-11-29T16:19:28.195Z,8.80
2022-11-29T16:22:21.339Z,8.80
2022-11-29T16:25:02.569Z,8.80
2022-11-29T16:27:34.999Z,8.80
2022-11-29T16:30:02.657Z,8.80
2022-11-29T16:32:38.276Z,8.70
2022-11-29T16:35:20.675Z,8.70
2022-11-29T16:37:48.207Z,8.70
2022-11-29T16:40:28.284Z,8.70
2022-11-29T16:43:04.337Z,8.70
2022-11-29T16:45:36.228Z,8.70
2022-11-29T16:48:24.868Z,8.70
2022-11-29T16:51:37.568Z,8.70
2022-11-29T16:54:26.076Z,8.60
2022-11-29T16:56:54.456Z,8.60
2022-11-29T16:59:27.911Z,8.60
2022-11-29T17:01:56.312Z,8.60
2022-11-29T17:04:24.603Z,8.60
2022-11-29T17:06:55.820Z,8.60
2022-11-29T17:09:26.971Z,8.60
2022-11-29T17:11:55.357Z,8.60
2022-11-29T17:14:22.711Z,8.60
2022-11-29T17:16:49.657Z,8.60
2022-11-29T17:19:16.659Z,8.60
2022-11-29T17:21:43.758Z,8.50
2022-11-29T17:24:13.587Z,8.50
2022-11-29T17:26:41.142Z,8.50
2022-11-29T17:29:07.855Z,8.50
2022-11-29T17:31:34.733Z,8.50
2022-11-29T17:34:01.959Z,8.60
2022-11-29T17:36:29.043Z,8.60
2022-11-29T17:38:58.175Z,8.50
2022-11-29T17:41:26.081Z,8.50
2022-11-29T17:43:54.292Z,8.50
2022-11-29T17:46:23.614Z,8.50
2022-11-29T17:48:50.744Z,8.50
2022-11-29T17:51:49.916Z,8.50
2022-11-29T17:54:07.922Z,8.50
2022-11-29T17:56:34.778Z,8.40
2022-11-29T17:59:03.531Z,8.40
2022-11-29T18:01:33.075Z,8.40
2022-11-29T18:04:01.719Z,8.40
2022-11-29T18:06:31.215Z,8.40
2022-11-29T18:08:59.962Z,8.40
2022-11-29T18:11:40.326Z,8.40
2022-11-29T18:14:13.603Z,8.40
2022-11-29T18:16:40.639Z,8.30
2022-11-29T18:19:11.033Z,8.40
2022-11-29T18:21:38.211Z,8.40
2022-11-29T18:24:06.798Z,8.40
2022-11-29T18:26:35.102Z,8.40
2022-11-29T18:29:02.426Z,8.30
2022-11-29T18:31:31.588Z,8.40
2022-11-29T18:34:00.693Z,8.40
2022-11-29T18:36:30.446Z,8.30
2022-11-29T18:38:59.722Z,8.30
2022-11-29T18:41:29.043Z,8.30
2022-11-29T18:44:07.413Z,8.30
2022-11-29T18:46:36.984Z,8.30
2022-11-29T18:49:05.985Z,8.30
2022-11-29T18:51:34.342Z,8.30
2022-11-29T18:54:01.898Z,8.30
2022-11-29T18:56:29.674Z,8.30
2022-11-29T18:59:01.837Z,8.30
2022-11-29T19:01:30.667Z,8.30
2022-11-29T19:03:59.349Z,8.30
2022-11-29T19:06:30.028Z,8.30
2022-11-29T19:09:00.120Z,8.30
2022-11-29T19:11:29.522Z,8.30
2022-11-29T19:13:59.785Z,8.20
2022-11-29T19:16:29.096Z,8.30
2022-11-29T19:18:57.281Z,8.30
2022-11-29T19:21:25.974Z,8.20
2022-11-29T19:23:55.603Z,8.20
2022-11-29T19:26:23.626Z,8.30
2022-11-29T19:28:50.658Z,8.30
2022-11-29T19:31:19.524Z,8.30
2022-11-29T19:33:46.915Z,8.30
2022-11-29T19:36:18.195Z,8.30
2022-11-29T19:38:50.233Z,8.30
2022-11-29T19:41:30.885Z,8.20
2022-11-29T19:43:59.590Z,8.20
2022-11-29T19:46:30.182Z,8.30
2022-11-29T19:48:58.163Z,8.30
2022-11-29T19:51:26.387Z,8.20
2022-11-29T19:53:55.278Z,8.20
2022-11-29T19:56:22.750Z,8.20
2022-11-29T19:58:49.840Z,8.20
2022-11-29T20:01:27.760Z,8.20
2022-11-29T20:03:58.524Z,8.20
2022-11-29T20:06:30.168Z,8.20
2022-11-29T20:08:57.660Z,8.20
2022-11-29T20:11:25.119Z,8.20
2022-11-29T20:13:55.537Z,8.20
2022-11-29T20:16:23.375Z,8.20
2022-11-29T20:18:52.838Z,8.20
2022-11-29T20:21:29.952Z,8.20
2022-11-29T20:23:59.431Z,8.20
2022-11-29T20:26:27.600Z,8.20
2022-11-29T20:28:54.781Z,8.20
2022-11-29T20:31:23.002Z,8.20
2022-11-29T20:33:51.769Z,8.20
2022-11-29T20:36:56.110Z,8.20
2022-11-29T20:39:38.985Z,8.20
2022-11-29T20:42:31.474Z,8.20
2022-11-29T20:45:01.025Z,8.20
2022-11-29T20:47:47.452Z,8.20
2022-11-29T20:50:23.864Z,8.20
2022-11-29T20:52:51.320Z,8.20
2022-11-29T20:55:18.376Z,8.20
2022-11-29T20:57:45.196Z,8.20
2022-11-29T21:00:12.683Z,8.20
2022-11-29T21:02:39.567Z,8.20
2022-11-29T21:05:16.395Z,8.20
2022-11-29T21:07:43.851Z,8.20
2022-11-29T21:10:10.839Z,8.20
2022-11-29T21:12:38.573Z,8.20
2022-11-29T21:15:06.113Z,8.20
2022-11-29T21:17:33.925Z,8.20
2022-11-29T21:20:01.216Z,8.20
2022-11-29T21:22:34.992Z,8.10
2022-11-29T21:25:20.337Z,8.10
2022-11-29T21:27:47.488Z,8.10
2022-11-29T21:30:20.442Z,8.20
2022-11-29T21:32:47.853Z,8.10
2022-11-29T21:35:15.660Z,8.10
2022-11-29T21:37:43.193Z,8.10
2022-11-29T21:40:10.386Z,8.10
2022-11-29T21:42:37.126Z,8.10
2022-11-29T21:45:13.283Z,8.10
2022-11-29T21:47:42.179Z,8.10
2022-11-29T21:50:09.327Z,8.10
2022-11-29T21:52:36.139Z,8.10
2022-11-29T21:55:03.098Z,8.00
2022-11-29T21:57:29.870Z,8.10
2022-11-29T21:59:56.613Z,8.10
2022-11-29T22:02:23.583Z,8.10
2022-11-29T22:04:50.422Z,8.10
2022-11-29T22:07:17.308Z,8.10
2022-11-29T22:09:44.105Z,8.10
2022-11-29T22:12:32.633Z,8.10
2022-11-29T22:14:57.653Z,8.10
2022-11-29T22:17:24.451Z,8.10
2022-11-29T22:19:51.190Z,8.10
2022-11-29T22:22:18.019Z,8.10
2022-11-29T22:24:45.135Z,8.10
2022-11-29T22:27:12.490Z,8.10
2022-11-29T22:29:39.255Z,8.10
2022-11-29T22:32:06.162Z,8.00
2022-11-29T22:34:32.990Z,8.00
2022-11-29T22:36:59.810Z,8.00
2022-11-29T22:39:26.604Z,8.10
2022-11-29T22:41:54.959Z,8.00
2022-11-29T22:44:23.466Z,8.00
2022-11-29T22:46:50.572Z,8.00
2022-11-29T22:49:17.425Z,8.00
2022-11-29T22:51:44.185Z,8.00
2022-11-29T22:54:11.687Z,8.00
2022-11-29T22:56:41.232Z,8.00
2022-11-29T22:59:09.109Z,8.00
2022-11-29T23:01:38.069Z,8.00
2022-11-29T23:04:07.109Z,8.00
2022-11-29T23:06:39.011Z,8.00
2022-11-29T23:09:11.989Z,8.00
2022-11-29T23:11:38.869Z,8.00
2022-11-29T23:14:05.679Z,8.00
2022-11-29T23:16:33.389Z,8.00
2022-11-29T23:19:00.874Z,8.00
2022-11-29T23:21:32.468Z,7.90
2022-11-29T23:24:00.844Z,8.00
2022-11-29T23:26:28.769Z,8.00
2022-11-29T23:28:56.482Z,7.90
2022-11-29T23:31:24.130Z,8.00
2022-11-29T23:33:50.973Z,8.00
2022-11-29T23:36:18.047Z,7.90
2022-11-29T23:38:45.226Z,8.00
2022-11-29T23:41:12.637Z,8.00
2022-11-29T23:43:40.647Z,8.00
2022-11-29T23:46:13.313Z,8.00
2022-11-29T23:48:40.680Z,8.00
2022-11-29T23:51:07.578Z,8.00
2022-11-29T23:53:34.423Z,8.00
2022-11-29T23:56:03.567Z,8.00
2022-11-29T23:58:31.304Z,8.00
